sensor_id;sensor_type;location;lat;lon;timestamp;P1;durP1;ratioP1;P2;durP2;ratioP2
75696;SDS011;64312;44.738;20.612;2023-03-14T00:01:47;11.07;;;4.93;;
75696;SDS011;64312;44.738;20.612;2023-03-14T00:04:14;11.23;;;5.00;;
75696;SDS011;64312;44.738;20.612;2023-03-14T00:06:40;11.55;;;5.90;;
75696;SDS011;64312;44.738;20.612;2023-03-14T00:09:06;10.23;;;5.25;;
75696;SDS011;64312;44.738;20.612;2023-03-14T00:11:31;9.65;;;4.53;;
75696;SDS011;64312;44.738;20.612;2023-03-14T00:13:57;11.07;;;5.32;;
75696;SDS011;64312;44.738;20.612;2023-03-14T00:16:24;8.40;;;4.72;;
75696;SDS011;64312;44.738;20.612;2023-03-14T00:18:50;9.35;;;4.78;;
75696;SDS011;64312;44.738;20.612;2023-03-14T00:21:16;7.72;;;3.70;;
75696;SDS011;64312;44.738;20.612;2023-03-14T00:23:42;7.40;;;3.95;;
75696;SDS011;64312;44.738;20.612;2023-03-14T00:26:12;7.38;;;3.78;;
75696;SDS011;64312;44.738;20.612;2023-03-14T00:28:42;6.10;;;3.38;;
75696;SDS011;64312;44.738;20.612;2023-03-14T00:31:10;8.00;;;3.42;;
75696;SDS011;64312;44.738;20.612;2023-03-14T00:33:39;4.97;;;3.20;;
75696;SDS011;64312;44.738;20.612;2023-03-14T00:36:05;5.20;;;3.10;;
75696;SDS011;64312;44.738;20.612;2023-03-14T00:38:36;8.05;;;3.47;;
75696;SDS011;64312;44.738;20.612;2023-03-14T00:41:04;7.25;;;3.78;;
75696;SDS011;64312;44.738;20.612;2023-03-14T00:43:32;7.57;;;3.70;;
75696;SDS011;64312;44.738;20.612;2023-03-14T00:45:57;5.90;;;3.05;;
75696;SDS011;64312;44.738;20.612;2023-03-14T00:48:25;5.60;;;3.30;;
75696;SDS011;64312;44.738;20.612;2023-03-14T00:50:51;5.82;;;3.65;;
75696;SDS011;64312;44.738;20.612;2023-03-14T00:53:17;6.03;;;3.17;;
75696;SDS011;64312;44.738;20.612;2023-03-14T00:55:44;6.25;;;3.50;;
75696;SDS011;64312;44.738;20.612;2023-03-14T00:58:10;5.50;;;2.92;;
75696;SDS011;64312;44.738;20.612;2023-03-14T01:00:37;4.03;;;2.78;;
75696;SDS011;64312;44.738;20.612;2023-03-14T01:03:03;3.83;;;2.25;;
75696;SDS011;64312;44.738;20.612;2023-03-14T01:05:30;5.70;;;2.88;;
75696;SDS011;64312;44.738;20.612;2023-03-14T01:07:55;7.10;;;3.45;;
75696;SDS011;64312;44.738;20.612;2023-03-14T01:10:21;6.45;;;3.22;;
75696;SDS011;64312;44.738;20.612;2023-03-14T01:12:48;6.10;;;3.20;;
75696;SDS011;64312;44.738;20.612;2023-03-14T01:15:13;4.15;;;2.78;;
75696;SDS011;64312;44.738;20.612;2023-03-14T01:17:40;4.93;;;2.70;;
75696;SDS011;64312;44.738;20.612;2023-03-14T01:20:06;5.68;;;2.90;;
75696;SDS011;64312;44.738;20.612;2023-03-14T01:22:37;4.80;;;2.75;;
75696;SDS011;64312;44.738;20.612;2023-03-14T01:25:08;5.63;;;2.72;;
75696;SDS011;64312;44.738;20.612;2023-03-14T01:27:36;4.85;;;2.50;;
75696;SDS011;64312;44.738;20.612;2023-03-14T01:30:02;5.90;;;3.10;;
75696;SDS011;64312;44.738;20.612;2023-03-14T01:32:30;5.65;;;3.17;;
75696;SDS011;64312;44.738;20.612;2023-03-14T01:34:56;4.72;;;3.13;;
75696;SDS011;64312;44.738;20.612;2023-03-14T01:37:22;5.32;;;2.92;;
75696;SDS011;64312;44.738;20.612;2023-03-14T01:39:47;5.80;;;3.00;;
75696;SDS011;64312;44.738;20.612;2023-03-14T01:42:14;4.05;;;2.60;;
75696;SDS011;64312;44.738;20.612;2023-03-14T01:44:50;6.95;;;3.63;;
75696;SDS011;64312;44.738;20.612;2023-03-14T01:47:19;10.02;;;4.25;;
75696;SDS011;64312;44.738;20.612;2023-03-14T01:49:46;6.68;;;3.50;;
75696;SDS011;64312;44.738;20.612;2023-03-14T01:52:35;7.22;;;3.60;;
75696;SDS011;64312;44.738;20.612;2023-03-14T01:55:15;7.47;;;4.40;;
75696;SDS011;64312;44.738;20.612;2023-03-14T01:57:56;5.70;;;3.17;;
75696;SDS011;64312;44.738;20.612;2023-03-14T02:00:28;5.45;;;3.10;;
75696;SDS011;64312;44.738;20.612;2023-03-14T02:02:55;5.43;;;3.03;;
75696;SDS011;64312;44.738;20.612;2023-03-14T02:05:32;6.22;;;3.30;;
75696;SDS011;64312;44.738;20.612;2023-03-14T02:08:04;5.43;;;3.15;;
75696;SDS011;64312;44.738;20.612;2023-03-14T02:10:46;6.40;;;3.70;;
75696;SDS011;64312;44.738;20.612;2023-03-14T02:13:16;6.25;;;3.28;;
75696;SDS011;64312;44.738;20.612;2023-03-14T02:16:00;5.90;;;3.25;;
75696;SDS011;64312;44.738;20.612;2023-03-14T02:18:50;5.32;;;3.47;;
75696;SDS011;64312;44.738;20.612;2023-03-14T02:21:52;5.07;;;3.00;;
75696;SDS011;64312;44.738;20.612;2023-03-14T02:27:34;5.57;;;3.28;;
75696;SDS011;64312;44.738;20.612;2023-03-14T02:32:45;5.65;;;3.15;;
75696;SDS011;64312;44.738;20.612;2023-03-14T02:35:15;5.32;;;2.92;;
75696;SDS011;64312;44.738;20.612;2023-03-14T02:37:57;5.53;;;2.97;;
75696;SDS011;64312;44.738;20.612;2023-03-14T02:40:38;5.43;;;3.00;;
75696;SDS011;64312;44.738;20.612;2023-03-14T02:43:03;4.90;;;3.15;;
75696;SDS011;64312;44.738;20.612;2023-03-14T02:45:35;6.13;;;2.72;;
75696;SDS011;64312;44.738;20.612;2023-03-14T02:48:14;7.40;;;3.35;;
75696;SDS011;64312;44.738;20.612;2023-03-14T02:50:41;5.57;;;2.83;;
75696;SDS011;64312;44.738;20.612;2023-03-14T02:53:07;6.03;;;3.42;;
75696;SDS011;64312;44.738;20.612;2023-03-14T02:55:33;5.72;;;3.28;;
75696;SDS011;64312;44.738;20.612;2023-03-14T02:58:04;5.68;;;3.53;;
75696;SDS011;64312;44.738;20.612;2023-03-14T03:00:30;5.43;;;3.03;;
75696;SDS011;64312;44.738;20.612;2023-03-14T03:02:56;7.00;;;3.53;;
75696;SDS011;64312;44.738;20.612;2023-03-14T03:05:21;4.68;;;3.20;;
75696;SDS011;64312;44.738;20.612;2023-03-14T03:07:47;6.40;;;3.50;;
75696;SDS011;64312;44.738;20.612;2023-03-14T03:10:12;7.13;;;3.60;;
75696;SDS011;64312;44.738;20.612;2023-03-14T03:12:38;5.32;;;3.38;;
75696;SDS011;64312;44.738;20.612;2023-03-14T03:15:05;7.65;;;3.75;;
75696;SDS011;64312;44.738;20.612;2023-03-14T03:17:34;7.22;;;3.45;;
75696;SDS011;64312;44.738;20.612;2023-03-14T03:19:59;7.60;;;3.70;;
75696;SDS011;64312;44.738;20.612;2023-03-14T03:22:25;5.72;;;3.40;;
75696;SDS011;64312;44.738;20.612;2023-03-14T03:24:50;6.70;;;3.78;;
75696;SDS011;64312;44.738;20.612;2023-03-14T03:27:16;5.75;;;3.22;;
75696;SDS011;64312;44.738;20.612;2023-03-14T03:29:42;5.47;;;3.50;;
75696;SDS011;64312;44.738;20.612;2023-03-14T03:32:07;5.30;;;2.75;;
75696;SDS011;64312;44.738;20.612;2023-03-14T03:34:33;5.32;;;3.03;;
75696;SDS011;64312;44.738;20.612;2023-03-14T03:37:00;5.60;;;3.10;;
75696;SDS011;64312;44.738;20.612;2023-03-14T03:39:28;4.53;;;2.83;;
75696;SDS011;64312;44.738;20.612;2023-03-14T03:41:55;6.05;;;2.75;;
75696;SDS011;64312;44.738;20.612;2023-03-14T03:44:21;5.78;;;2.70;;
75696;SDS011;64312;44.738;20.612;2023-03-14T03:46:47;3.92;;;2.45;;
75696;SDS011;64312;44.738;20.612;2023-03-14T03:49:13;4.40;;;2.80;;
75696;SDS011;64312;44.738;20.612;2023-03-14T03:51:39;4.45;;;2.90;;
75696;SDS011;64312;44.738;20.612;2023-03-14T03:54:05;6.22;;;3.22;;
75696;SDS011;64312;44.738;20.612;2023-03-14T03:56:32;6.15;;;3.65;;
75696;SDS011;64312;44.738;20.612;2023-03-14T03:58:58;9.27;;;4.07;;
75696;SDS011;64312;44.738;20.612;2023-03-14T04:01:24;7.10;;;3.97;;
75696;SDS011;64312;44.738;20.612;2023-03-14T04:03:52;7.72;;;3.72;;
75696;SDS011;64312;44.738;20.612;2023-03-14T04:06:19;6.53;;;3.65;;
75696;SDS011;64312;44.738;20.612;2023-03-14T04:08:46;8.00;;;4.13;;
75696;SDS011;64312;44.738;20.612;2023-03-14T04:11:25;6.65;;;4.05;;
75696;SDS011;64312;44.738;20.612;2023-03-14T04:14:01;7.53;;;4.30;;
75696;SDS011;64312;44.738;20.612;2023-03-14T04:16:29;7.15;;;4.18;;
75696;SDS011;64312;44.738;20.612;2023-03-14T04:19:02;10.65;;;5.13;;
75696;SDS011;64312;44.738;20.612;2023-03-14T04:21:30;11.52;;;5.05;;
75696;SDS011;64312;44.738;20.612;2023-03-14T04:23:56;9.30;;;3.92;;
75696;SDS011;64312;44.738;20.612;2023-03-14T04:26:23;7.05;;;3.85;;
75696;SDS011;64312;44.738;20.612;2023-03-14T04:28:49;6.40;;;3.90;;
75696;SDS011;64312;44.738;20.612;2023-03-14T04:31:17;6.20;;;3.83;;
75696;SDS011;64312;44.738;20.612;2023-03-14T04:33:45;6.40;;;3.30;;
75696;SDS011;64312;44.738;20.612;2023-03-14T04:36:12;6.43;;;3.13;;
75696;SDS011;64312;44.738;20.612;2023-03-14T04:38:38;5.50;;;3.35;;
75696;SDS011;64312;44.738;20.612;2023-03-14T04:41:06;5.60;;;3.03;;
75696;SDS011;64312;44.738;20.612;2023-03-14T04:43:32;6.75;;;3.15;;
75696;SDS011;64312;44.738;20.612;2023-03-14T04:46:03;6.05;;;3.70;;
75696;SDS011;64312;44.738;20.612;2023-03-14T04:48:30;5.22;;;3.08;;
75696;SDS011;64312;44.738;20.612;2023-03-14T04:50:56;6.35;;;2.83;;
75696;SDS011;64312;44.738;20.612;2023-03-14T04:53:22;4.97;;;3.08;;
75696;SDS011;64312;44.738;20.612;2023-03-14T04:55:51;4.57;;;2.78;;
75696;SDS011;64312;44.738;20.612;2023-03-14T04:58:19;6.00;;;3.03;;
75696;SDS011;64312;44.738;20.612;2023-03-14T05:00:47;6.28;;;3.30;;
75696;SDS011;64312;44.738;20.612;2023-03-14T05:03:32;5.57;;;3.53;;
75696;SDS011;64312;44.738;20.612;2023-03-14T05:06:14;7.45;;;4.15;;
75696;SDS011;64312;44.738;20.612;2023-03-14T05:09:07;13.10;;;6.35;;
75696;SDS011;64312;44.738;20.612;2023-03-14T05:11:58;10.27;;;5.80;;
75696;SDS011;64312;44.738;20.612;2023-03-14T05:14:49;7.05;;;4.25;;
75696;SDS011;64312;44.738;20.612;2023-03-14T05:17:24;7.20;;;4.05;;
75696;SDS011;64312;44.738;20.612;2023-03-14T05:20:09;6.88;;;3.58;;
75696;SDS011;64312;44.738;20.612;2023-03-14T05:23:04;5.88;;;3.65;;
75696;SDS011;64312;44.738;20.612;2023-03-14T05:25:48;4.75;;;2.58;;
75696;SDS011;64312;44.738;20.612;2023-03-14T05:28:34;7.07;;;2.70;;
75696;SDS011;64312;44.738;20.612;2023-03-14T05:31:21;5.57;;;2.75;;
75696;SDS011;64312;44.738;20.612;2023-03-14T05:34:16;4.43;;;2.70;;
75696;SDS011;64312;44.738;20.612;2023-03-14T05:37:02;4.30;;;2.88;;
75696;SDS011;64312;44.738;20.612;2023-03-14T05:39:38;5.90;;;3.05;;
75696;SDS011;64312;44.738;20.612;2023-03-14T05:42:23;6.85;;;3.90;;
75696;SDS011;64312;44.738;20.612;2023-03-14T05:45:10;7.90;;;3.80;;
75696;SDS011;64312;44.738;20.612;2023-03-14T05:47:48;4.95;;;2.80;;
75696;SDS011;64312;44.738;20.612;2023-03-14T05:50:37;6.13;;;3.08;;
75696;SDS011;64312;44.738;20.612;2023-03-14T05:53:11;6.30;;;3.05;;
75696;SDS011;64312;44.738;20.612;2023-03-14T05:55:38;6.15;;;3.17;;
75696;SDS011;64312;44.738;20.612;2023-03-14T05:58:13;7.10;;;2.90;;
75696;SDS011;64312;44.738;20.612;2023-03-14T06:01:04;4.72;;;3.05;;
75696;SDS011;64312;44.738;20.612;2023-03-14T06:03:51;6.68;;;3.40;;
75696;SDS011;64312;44.738;20.612;2023-03-14T06:06:16;8.60;;;4.20;;
75696;SDS011;64312;44.738;20.612;2023-03-14T06:08:42;9.73;;;4.55;;
75696;SDS011;64312;44.738;20.612;2023-03-14T06:11:10;8.13;;;3.63;;
75696;SDS011;64312;44.738;20.612;2023-03-14T06:13:35;8.57;;;4.07;;
75696;SDS011;64312;44.738;20.612;2023-03-14T06:16:01;7.57;;;4.05;;
75696;SDS011;64312;44.738;20.612;2023-03-14T06:18:27;7.18;;;3.42;;
75696;SDS011;64312;44.738;20.612;2023-03-14T06:20:54;9.13;;;4.13;;
75696;SDS011;64312;44.738;20.612;2023-03-14T06:23:23;6.72;;;3.67;;
75696;SDS011;64312;44.738;20.612;2023-03-14T06:25:50;5.25;;;2.97;;
75696;SDS011;64312;44.738;20.612;2023-03-14T06:28:16;5.53;;;3.38;;
75696;SDS011;64312;44.738;20.612;2023-03-14T06:30:42;8.57;;;3.97;;
75696;SDS011;64312;44.738;20.612;2023-03-14T06:33:10;11.20;;;6.00;;
75696;SDS011;64312;44.738;20.612;2023-03-14T06:35:36;10.40;;;5.72;;
75696;SDS011;64312;44.738;20.612;2023-03-14T06:38:01;10.85;;;5.00;;
75696;SDS011;64312;44.738;20.612;2023-03-14T06:40:27;9.77;;;4.60;;
75696;SDS011;64312;44.738;20.612;2023-03-14T06:42:57;10.07;;;4.78;;
75696;SDS011;64312;44.738;20.612;2023-03-14T06:45:26;7.93;;;4.50;;
75696;SDS011;64312;44.738;20.612;2023-03-14T06:47:52;7.43;;;4.38;;
75696;SDS011;64312;44.738;20.612;2023-03-14T06:50:22;8.90;;;4.50;;
75696;SDS011;64312;44.738;20.612;2023-03-14T06:52:48;10.65;;;5.25;;
75696;SDS011;64312;44.738;20.612;2023-03-14T06:55:19;10.20;;;4.15;;
75696;SDS011;64312;44.738;20.612;2023-03-14T06:57:45;8.20;;;3.78;;
75696;SDS011;64312;44.738;20.612;2023-03-14T07:00:12;7.63;;;4.10;;
75696;SDS011;64312;44.738;20.612;2023-03-14T07:02:39;6.43;;;4.25;;
75696;SDS011;64312;44.738;20.612;2023-03-14T07:05:06;7.60;;;3.95;;
75696;SDS011;64312;44.738;20.612;2023-03-14T07:07:33;7.32;;;3.90;;
75696;SDS011;64312;44.738;20.612;2023-03-14T07:09:58;7.95;;;4.30;;
75696;SDS011;64312;44.738;20.612;2023-03-14T07:12:26;6.13;;;3.58;;
75696;SDS011;64312;44.738;20.612;2023-03-14T07:14:51;6.22;;;3.25;;
75696;SDS011;64312;44.738;20.612;2023-03-14T07:17:17;6.38;;;3.28;;
75696;SDS011;64312;44.738;20.612;2023-03-14T07:19:43;6.93;;;3.38;;
75696;SDS011;64312;44.738;20.612;2023-03-14T07:22:08;7.35;;;3.58;;
75696;SDS011;64312;44.738;20.612;2023-03-14T07:24:34;6.32;;;3.65;;
75696;SDS011;64312;44.738;20.612;2023-03-14T07:26:59;4.45;;;2.95;;
75696;SDS011;64312;44.738;20.612;2023-03-14T07:29:25;5.95;;;2.92;;
75696;SDS011;64312;44.738;20.612;2023-03-14T07:31:51;5.80;;;2.60;;
75696;SDS011;64312;44.738;20.612;2023-03-14T07:34:19;5.07;;;3.35;;
75696;SDS011;64312;44.738;20.612;2023-03-14T07:36:45;6.65;;;3.45;;
75696;SDS011;64312;44.738;20.612;2023-03-14T07:39:10;5.97;;;3.38;;
75696;SDS011;64312;44.738;20.612;2023-03-14T07:41:48;5.45;;;2.88;;
75696;SDS011;64312;44.738;20.612;2023-03-14T07:44:42;7.13;;;3.67;;
75696;SDS011;64312;44.738;20.612;2023-03-14T07:47:08;6.38;;;3.92;;
75696;SDS011;64312;44.738;20.612;2023-03-14T07:49:33;5.18;;;3.25;;
75696;SDS011;64312;44.738;20.612;2023-03-14T07:51:59;5.03;;;2.83;;
75696;SDS011;64312;44.738;20.612;2023-03-14T07:54:24;5.53;;;3.22;;
75696;SDS011;64312;44.738;20.612;2023-03-14T07:56:51;8.30;;;3.28;;
75696;SDS011;64312;44.738;20.612;2023-03-14T07:59:19;6.47;;;3.83;;
75696;SDS011;64312;44.738;20.612;2023-03-14T08:01:45;4.40;;;3.10;;
75696;SDS011;64312;44.738;20.612;2023-03-14T08:04:10;5.30;;;3.08;;
75696;SDS011;64312;44.738;20.612;2023-03-14T08:06:36;5.93;;;3.20;;
75696;SDS011;64312;44.738;20.612;2023-03-14T08:09:02;4.85;;;2.85;;
75696;SDS011;64312;44.738;20.612;2023-03-14T08:11:28;6.25;;;3.28;;
75696;SDS011;64312;44.738;20.612;2023-03-14T08:13:54;5.10;;;2.90;;
75696;SDS011;64312;44.738;20.612;2023-03-14T08:16:20;5.43;;;3.30;;
75696;SDS011;64312;44.738;20.612;2023-03-14T08:18:46;5.40;;;2.70;;
75696;SDS011;64312;44.738;20.612;2023-03-14T08:21:12;4.70;;;2.92;;
75696;SDS011;64312;44.738;20.612;2023-03-14T08:23:38;5.57;;;3.13;;
75696;SDS011;64312;44.738;20.612;2023-03-14T08:26:04;5.25;;;3.35;;
75696;SDS011;64312;44.738;20.612;2023-03-14T08:28:29;7.72;;;4.72;;
75696;SDS011;64312;44.738;20.612;2023-03-14T08:30:59;6.63;;;3.95;;
75696;SDS011;64312;44.738;20.612;2023-03-14T08:33:26;6.15;;;3.47;;
75696;SDS011;64312;44.738;20.612;2023-03-14T08:35:54;6.43;;;3.47;;
75696;SDS011;64312;44.738;20.612;2023-03-14T08:38:21;4.68;;;3.30;;
75696;SDS011;64312;44.738;20.612;2023-03-14T08:40:47;4.13;;;2.85;;
75696;SDS011;64312;44.738;20.612;2023-03-14T08:43:13;6.93;;;3.38;;
75696;SDS011;64312;44.738;20.612;2023-03-14T08:45:38;7.22;;;3.53;;
75696;SDS011;64312;44.738;20.612;2023-03-14T08:48:04;5.53;;;3.00;;
75696;SDS011;64312;44.738;20.612;2023-03-14T08:50:30;5.50;;;3.30;;
75696;SDS011;64312;44.738;20.612;2023-03-14T08:52:55;4.05;;;2.72;;
75696;SDS011;64312;44.738;20.612;2023-03-14T08:55:25;4.03;;;2.72;;
75696;SDS011;64312;44.738;20.612;2023-03-14T08:57:52;5.40;;;3.00;;
75696;SDS011;64312;44.738;20.612;2023-03-14T09:00:19;4.50;;;2.83;;
75696;SDS011;64312;44.738;20.612;2023-03-14T09:02:45;5.28;;;3.25;;
75696;SDS011;64312;44.738;20.612;2023-03-14T09:05:12;5.20;;;2.63;;
75696;SDS011;64312;44.738;20.612;2023-03-14T09:07:38;3.92;;;2.70;;
75696;SDS011;64312;44.738;20.612;2023-03-14T09:10:06;5.35;;;2.92;;
75696;SDS011;64312;44.738;20.612;2023-03-14T09:12:32;4.68;;;3.08;;
75696;SDS011;64312;44.738;20.612;2023-03-14T09:14:58;5.45;;;2.92;;
75696;SDS011;64312;44.738;20.612;2023-03-14T09:17:23;5.32;;;2.78;;
75696;SDS011;64312;44.738;20.612;2023-03-14T09:19:49;4.93;;;3.20;;
75696;SDS011;64312;44.738;20.612;2023-03-14T09:22:14;4.05;;;2.78;;
75696;SDS011;64312;44.738;20.612;2023-03-14T09:24:41;5.95;;;2.88;;
75696;SDS011;64312;44.738;20.612;2023-03-14T09:27:07;6.95;;;3.60;;
75696;SDS011;64312;44.738;20.612;2023-03-14T09:29:33;5.20;;;3.78;;
75696;SDS011;64312;44.738;20.612;2023-03-14T09:31:58;4.60;;;3.05;;
75696;SDS011;64312;44.738;20.612;2023-03-14T09:34:24;7.88;;;3.95;;
75696;SDS011;64312;44.738;20.612;2023-03-14T09:36:50;5.55;;;3.35;;
75696;SDS011;64312;44.738;20.612;2023-03-14T09:39:16;4.72;;;3.10;;
75696;SDS011;64312;44.738;20.612;2023-03-14T09:41:49;4.50;;;2.88;;
75696;SDS011;64312;44.738;20.612;2023-03-14T09:44:33;4.53;;;2.60;;
75696;SDS011;64312;44.738;20.612;2023-03-14T09:47:04;4.30;;;2.85;;
75696;SDS011;64312;44.738;20.612;2023-03-14T09:49:41;5.05;;;3.15;;
75696;SDS011;64312;44.738;20.612;2023-03-14T09:55:12;5.28;;;3.22;;
75696;SDS011;64312;44.738;20.612;2023-03-14T09:57:41;4.50;;;3.17;;
75696;SDS011;64312;44.738;20.612;2023-03-14T10:00:30;4.90;;;2.78;;
75696;SDS011;64312;44.738;20.612;2023-03-14T10:03:00;6.72;;;3.10;;
75696;SDS011;64312;44.738;20.612;2023-03-14T10:05:45;7.20;;;3.80;;
75696;SDS011;64312;44.738;20.612;2023-03-14T10:08:11;6.05;;;3.20;;
75696;SDS011;64312;44.738;20.612;2023-03-14T10:10:38;8.65;;;3.38;;
75696;SDS011;64312;44.738;20.612;2023-03-14T10:16:03;4.35;;;3.05;;
75696;SDS011;64312;44.738;20.612;2023-03-14T10:18:33;6.10;;;3.63;;
75696;SDS011;64312;44.738;20.612;2023-03-14T10:23:46;4.93;;;3.05;;
75696;SDS011;64312;44.738;20.612;2023-03-14T10:26:14;5.32;;;3.20;;
75696;SDS011;64312;44.738;20.612;2023-03-14T10:28:45;6.47;;;3.25;;
75696;SDS011;64312;44.738;20.612;2023-03-14T10:31:13;4.50;;;2.92;;
75696;SDS011;64312;44.738;20.612;2023-03-14T10:33:39;4.50;;;3.10;;
75696;SDS011;64312;44.738;20.612;2023-03-14T10:36:20;4.45;;;3.10;;
75696;SDS011;64312;44.738;20.612;2023-03-14T10:38:49;4.05;;;2.63;;
75696;SDS011;64312;44.738;20.612;2023-03-14T10:41:25;4.50;;;2.78;;
75696;SDS011;64312;44.738;20.612;2023-03-14T10:44:01;4.82;;;2.78;;
75696;SDS011;64312;44.738;20.612;2023-03-14T10:46:30;3.85;;;2.80;;
75696;SDS011;64312;44.738;20.612;2023-03-14T10:49:26;4.60;;;2.85;;
75696;SDS011;64312;44.738;20.612;2023-03-14T10:51:54;4.90;;;2.90;;
75696;SDS011;64312;44.738;20.612;2023-03-14T10:54:20;4.05;;;2.80;;
75696;SDS011;64312;44.738;20.612;2023-03-14T10:56:57;4.20;;;2.72;;
75696;SDS011;64312;44.738;20.612;2023-03-14T10:59:27;4.78;;;2.55;;
75696;SDS011;64312;44.738;20.612;2023-03-14T11:02:23;3.35;;;2.40;;
75696;SDS011;64312;44.738;20.612;2023-03-14T11:04:55;5.30;;;2.90;;
75696;SDS011;64312;44.738;20.612;2023-03-14T11:10:20;5.32;;;3.00;;
75696;SDS011;64312;44.738;20.612;2023-03-14T11:16:06;7.03;;;3.28;;
75696;SDS011;64312;44.738;20.612;2023-03-14T11:29:57;4.43;;;2.88;;
75696;SDS011;64312;44.738;20.612;2023-03-14T11:35:16;4.18;;;2.83;;
75696;SDS011;64312;44.738;20.612;2023-03-14T11:38:08;4.30;;;3.08;;
75696;SDS011;64312;44.738;20.612;2023-03-14T11:40:38;5.05;;;2.88;;
75696;SDS011;64312;44.738;20.612;2023-03-14T11:45:53;5.00;;;2.90;;
75696;SDS011;64312;44.738;20.612;2023-03-14T11:48:41;6.40;;;3.00;;
75696;SDS011;64312;44.738;20.612;2023-03-14T11:51:13;4.45;;;2.67;;
75696;SDS011;64312;44.738;20.612;2023-03-14T11:59:00;5.25;;;3.20;;
75696;SDS011;64312;44.738;20.612;2023-03-14T12:01:54;5.07;;;3.22;;
75696;SDS011;64312;44.738;20.612;2023-03-14T12:04:40;5.50;;;3.45;;
75696;SDS011;64312;44.738;20.612;2023-03-14T12:07:28;6.80;;;3.15;;
75696;SDS011;64312;44.738;20.612;2023-03-14T12:10:01;7.72;;;3.65;;
75696;SDS011;64312;44.738;20.612;2023-03-14T12:12:28;4.80;;;3.38;;
75696;SDS011;64312;44.738;20.612;2023-03-14T12:14:59;5.93;;;3.38;;
75696;SDS011;64312;44.738;20.612;2023-03-14T12:17:34;5.13;;;3.42;;
75696;SDS011;64312;44.738;20.612;2023-03-14T12:25:24;5.25;;;3.25;;
75696;SDS011;64312;44.738;20.612;2023-03-14T12:30:38;7.45;;;2.90;;
75696;SDS011;64312;44.738;20.612;2023-03-14T12:35:48;5.88;;;3.45;;
75696;SDS011;64312;44.738;20.612;2023-03-14T12:41:01;4.28;;;3.15;;
75696;SDS011;64312;44.738;20.612;2023-03-14T12:43:32;5.35;;;2.95;;
75696;SDS011;64312;44.738;20.612;2023-03-14T12:48:44;5.10;;;3.10;;
75696;SDS011;64312;44.738;20.612;2023-03-14T12:51:14;4.93;;;3.10;;
75696;SDS011;64312;44.738;20.612;2023-03-14T13:00:13;4.03;;;2.78;;
75696;SDS011;64312;44.738;20.612;2023-03-14T13:02:42;4.53;;;2.58;;
75696;SDS011;64312;44.738;20.612;2023-03-14T13:05:09;5.07;;;3.00;;
75696;SDS011;64312;44.738;20.612;2023-03-14T13:10:25;4.57;;;2.92;;
75696;SDS011;64312;44.738;20.612;2023-03-14T13:15:44;4.80;;;2.45;;
75696;SDS011;64312;44.738;20.612;2023-03-14T13:18:12;4.20;;;2.70;;
75696;SDS011;64312;44.738;20.612;2023-03-14T13:21:11;6.25;;;3.45;;
75696;SDS011;64312;44.738;20.612;2023-03-14T13:24:02;3.97;;;2.60;;
75696;SDS011;64312;44.738;20.612;2023-03-14T13:26:32;3.88;;;2.40;;
75696;SDS011;64312;44.738;20.612;2023-03-14T13:29:21;4.05;;;2.72;;
75696;SDS011;64312;44.738;20.612;2023-03-14T13:31:53;4.13;;;2.55;;
75696;SDS011;64312;44.738;20.612;2023-03-14T13:36:59;6.18;;;2.88;;
75696;SDS011;64312;44.738;20.612;2023-03-14T13:39:26;5.18;;;3.53;;
75696;SDS011;64312;44.738;20.612;2023-03-14T13:41:57;6.78;;;3.38;;
75696;SDS011;64312;44.738;20.612;2023-03-14T13:44:34;4.70;;;2.90;;
75696;SDS011;64312;44.738;20.612;2023-03-14T13:47:03;4.93;;;2.92;;
75696;SDS011;64312;44.738;20.612;2023-03-14T13:49:32;4.40;;;2.80;;
75696;SDS011;64312;44.738;20.612;2023-03-14T13:52:00;5.60;;;2.85;;
75696;SDS011;64312;44.738;20.612;2023-03-14T13:54:26;7.90;;;3.30;;
75696;SDS011;64312;44.738;20.612;2023-03-14T13:57:00;5.78;;;3.38;;
75696;SDS011;64312;44.738;20.612;2023-03-14T13:59:28;7.00;;;3.53;;
75696;SDS011;64312;44.738;20.612;2023-03-14T14:01:56;9.85;;;4.05;;
75696;SDS011;64312;44.738;20.612;2023-03-14T14:04:25;9.27;;;4.25;;
75696;SDS011;64312;44.738;20.612;2023-03-14T14:07:01;7.40;;;3.83;;
75696;SDS011;64312;44.738;20.612;2023-03-14T14:09:38;8.57;;;3.80;;
75696;SDS011;64312;44.738;20.612;2023-03-14T14:12:06;6.07;;;3.13;;
75696;SDS011;64312;44.738;20.612;2023-03-14T14:14:37;4.50;;;3.13;;
75696;SDS011;64312;44.738;20.612;2023-03-14T14:17:10;5.05;;;2.72;;
75696;SDS011;64312;44.738;20.612;2023-03-14T14:19:39;5.38;;;2.75;;
75696;SDS011;64312;44.738;20.612;2023-03-14T14:22:06;5.38;;;3.03;;
75696;SDS011;64312;44.738;20.612;2023-03-14T14:24:35;5.45;;;3.20;;
75696;SDS011;64312;44.738;20.612;2023-03-14T14:27:08;5.43;;;3.05;;
75696;SDS011;64312;44.738;20.612;2023-03-14T14:29:38;6.13;;;3.25;;
75696;SDS011;64312;44.738;20.612;2023-03-14T14:37:18;8.10;;;3.90;;
75696;SDS011;64312;44.738;20.612;2023-03-14T14:39:46;7.68;;;4.13;;
75696;SDS011;64312;44.738;20.612;2023-03-14T14:42:13;7.93;;;4.60;;
75696;SDS011;64312;44.738;20.612;2023-03-14T14:44:42;8.02;;;4.55;;
75696;SDS011;64312;44.738;20.612;2023-03-14T14:47:13;8.18;;;4.30;;
75696;SDS011;64312;44.738;20.612;2023-03-14T14:49:42;7.35;;;4.15;;
75696;SDS011;64312;44.738;20.612;2023-03-14T14:52:13;6.10;;;4.03;;
75696;SDS011;64312;44.738;20.612;2023-03-14T14:54:47;8.10;;;5.15;;
75696;SDS011;64312;44.738;20.612;2023-03-14T14:57:21;7.47;;;4.40;;
75696;SDS011;64312;44.738;20.612;2023-03-14T14:59:55;6.25;;;3.92;;
75696;SDS011;64312;44.738;20.612;2023-03-14T15:02:40;4.30;;;3.50;;
75696;SDS011;64312;44.738;20.612;2023-03-14T15:05:29;4.63;;;3.17;;
75696;SDS011;64312;44.738;20.612;2023-03-14T15:08:01;5.22;;;3.50;;
75696;SDS011;64312;44.738;20.612;2023-03-14T15:10:26;7.95;;;3.67;;
75696;SDS011;64312;44.738;20.612;2023-03-14T15:12:52;4.55;;;3.20;;
75696;SDS011;64312;44.738;20.612;2023-03-14T15:15:18;5.03;;;3.40;;
75696;SDS011;64312;44.738;20.612;2023-03-14T15:17:44;4.82;;;3.28;;
75696;SDS011;64312;44.738;20.612;2023-03-14T15:20:11;5.55;;;3.70;;
75696;SDS011;64312;44.738;20.612;2023-03-14T15:22:41;5.25;;;3.50;;
75696;SDS011;64312;44.738;20.612;2023-03-14T15:25:07;4.32;;;3.05;;
75696;SDS011;64312;44.738;20.612;2023-03-14T15:27:35;4.43;;;3.28;;
75696;SDS011;64312;44.738;20.612;2023-03-14T15:30:02;4.55;;;3.20;;
75696;SDS011;64312;44.738;20.612;2023-03-14T15:32:28;6.03;;;3.72;;
75696;SDS011;64312;44.738;20.612;2023-03-14T15:34:55;8.15;;;4.15;;
75696;SDS011;64312;44.738;20.612;2023-03-14T15:37:22;5.95;;;3.88;;
75696;SDS011;64312;44.738;20.612;2023-03-14T15:39:48;7.10;;;3.92;;
75696;SDS011;64312;44.738;20.612;2023-03-14T15:42:14;5.72;;;3.83;;
75696;SDS011;64312;44.738;20.612;2023-03-14T15:44:40;7.50;;;4.50;;
75696;SDS011;64312;44.738;20.612;2023-03-14T15:47:05;6.95;;;4.38;;
75696;SDS011;64312;44.738;20.612;2023-03-14T15:49:32;7.38;;;4.28;;
75696;SDS011;64312;44.738;20.612;2023-03-14T15:51:58;5.57;;;3.67;;
75696;SDS011;64312;44.738;20.612;2023-03-14T15:54:24;6.53;;;4.03;;
75696;SDS011;64312;44.738;20.612;2023-03-14T15:56:54;6.88;;;4.25;;
75696;SDS011;64312;44.738;20.612;2023-03-14T15:59:20;5.95;;;3.90;;
75696;SDS011;64312;44.738;20.612;2023-03-14T16:01:47;6.40;;;3.67;;
75696;SDS011;64312;44.738;20.612;2023-03-14T16:04:15;4.88;;;3.85;;
75696;SDS011;64312;44.738;20.612;2023-03-14T16:06:41;5.80;;;3.22;;
75696;SDS011;64312;44.738;20.612;2023-03-14T16:09:08;4.75;;;3.28;;
75696;SDS011;64312;44.738;20.612;2023-03-14T16:11:34;4.40;;;3.10;;